Time;durP1;ratioP1;P1;durP2;ratioP2;P2;SDS_P1;SDS_P2;PMS_P1;PMS_P2;Temp;Humidity;BMP_temperature;BMP_pressure;BME280_temperature;BME280_humidity;BME280_pressure;Samples;Min_cycle;Max_cycle;Signal;HPM_P1;HPM_P2
2023/10/22 00:01:13;;;;;;;1.40;1.40;;;;;;;;;;5019782;28;20063;-64
2023/10/22 00:03:44;;;;;;;1.40;1.40;;;;;;;;;;5042811;28;20084;-65
2023/10/22 00:06:13;;;;;;;1.50;1.40;;;;;;;;;;5020915;28;20061;-64
2023/10/22 00:08:42;;;;;;;1.40;1.40;;;;;;;;;;5039730;28;20080;-64
2023/10/22 00:11:11;;;;;;;1.40;1.40;;;;;;;;;;5023814;28;20139;-64
2023/10/22 00:13:39;;;;;;;1.38;1.38;;;;;;;;;;5025156;28;20103;-64
2023/10/22 00:16:08;;;;;;;1.50;1.50;;;;;;;;;;5037740;28;20056;-64
2023/10/22 00:18:37;;;;;;;1.40;1.40;;;;;;;;;;5018254;28;20190;-64
2023/10/22 00:21:10;;;;;;;1.52;1.45;;;;;;;;;;5038837;28;20045;-64
2023/10/22 00:23:38;;;;;;;1.65;1.55;;;;;;;;;;5022793;28;20060;-64
2023/10/22 00:26:14;;;;;;;1.30;1.30;;;;;;;;;;5024732;28;20060;-64
2023/10/22 00:28:43;;;;;;;1.50;1.50;;;;;;;;;;5023476;28;20457;-64
2023/10/22 00:31:12;;;;;;;1.70;1.60;;;;;;;;;;5024325;28;20092;-64
2023/10/22 00:33:41;;;;;;;1.80;1.70;;;;;;;;;;5023735;28;20061;-64
2023/10/22 00:36:11;;;;;;;1.58;1.58;;;;;;;;;;5021697;28;20091;-64
2023/10/22 00:38:40;;;;;;;1.50;1.50;;;;;;;;;;5040658;28;20049;-64
2023/10/22 00:41:08;;;;;;;1.50;1.40;;;;;;;;;;5040817;28;20502;-64
2023/10/22 00:43:36;;;;;;;1.40;1.40;;;;;;;;;;5039104;28;20041;-64
2023/10/22 00:46:05;;;;;;;1.40;1.40;;;;;;;;;;5040381;28;20594;-64
2023/10/22 00:48:33;;;;;;;1.45;1.35;;;;;;;;;;5043095;28;20486;-64
2023/10/22 00:51:02;;;;;;;1.33;1.33;;;;;;;;;;5037060;28;20187;-64
2023/10/22 00:53:32;;;;;;;1.63;1.60;;;;;;;;;;5042426;28;20041;-64
2023/10/22 00:56:00;;;;;;;1.60;1.50;;;;;;;;;;5041913;28;20686;-64
2023/10/22 00:58:29;;;;;;;1.40;1.40;;;;;;;;;;5040995;28;20411;-64
2023/10/22 01:00:57;;;;;;;1.40;1.40;;;;;;;;;;5043131;28;20128;-64
2023/10/22 01:03:26;;;;;;;1.30;1.30;;;;;;;;;;5042015;28;20171;-64
2023/10/22 01:05:55;;;;;;;1.42;1.42;;;;;;;;;;5041218;28;20418;-64
2023/10/22 01:08:23;;;;;;;1.40;1.40;;;;;;;;;;5040675;28;20055;-64
2023/10/22 01:10:53;;;;;;;1.48;1.48;;;;;;;;;;5042041;28;20486;-64
2023/10/22 01:13:21;;;;;;;1.50;1.40;;;;;;;;;;5039354;28;20073;-64
2023/10/22 01:15:49;;;;;;;1.65;1.55;;;;;;;;;;5038992;28;20045;-64
2023/10/22 01:18:18;;;;;;;1.50;1.50;;;;;;;;;;5039237;28;20057;-64
2023/10/22 01:20:48;;;;;;;1.50;1.50;;;;;;;;;;5040154;28;20053;-64
2023/10/22 01:23:17;;;;;;;1.40;1.40;;;;;;;;;;5041022;28;20052;-64
2023/10/22 01:25:46;;;;;;;1.50;1.50;;;;;;;;;;5042847;28;20045;-65
2023/10/22 01:28:14;;;;;;;2.10;1.60;;;;;;;;;;5036645;28;20690;-64
2023/10/22 01:30:43;;;;;;;1.50;1.50;;;;;;;;;;5042176;28;20165;-64
2023/10/22 01:33:11;;;;;;;1.55;1.45;;;;;;;;;;5041531;28;20054;-64
2023/10/22 01:35:39;;;;;;;1.60;1.60;;;;;;;;;;5040191;28;20041;-64
2023/10/22 01:38:08;;;;;;;1.50;1.50;;;;;;;;;;5037011;28;20298;-64
2023/10/22 01:40:38;;;;;;;3.13;1.63;;;;;;;;;;5041351;28;20049;-64
2023/10/22 01:43:07;;;;;;;1.92;1.83;;;;;;;;;;5040313;28;20140;-64
2023/10/22 01:45:35;;;;;;;1.70;1.70;;;;;;;;;;5045267;28;20048;-64
2023/10/22 01:48:03;;;;;;;1.67;1.60;;;;;;;;;;5039481;28;20090;-64
2023/10/22 01:50:32;;;;;;;1.50;1.50;;;;;;;;;;5041844;28;20040;-64
2023/10/22 01:53:01;;;;;;;1.60;1.60;;;;;;;;;;5043090;28;20126;-64
2023/10/22 01:55:30;;;;;;;1.60;1.60;;;;;;;;;;5044821;28;20045;-64
2023/10/22 01:58:00;;;;;;;1.50;1.50;;;;;;;;;;5042025;28;20061;-64
2023/10/22 02:00:30;;;;;;;2.00;1.90;;;;;;;;;;5042496;28;20048;-64
2023/10/22 02:02:58;;;;;;;1.70;1.60;;;;;;;;;;5043077;28;20506;-64
2023/10/22 02:05:27;;;;;;;1.48;1.48;;;;;;;;;;5045007;28;20041;-64
2023/10/22 02:07:55;;;;;;;1.60;1.60;;;;;;;;;;5042999;28;20453;-64
2023/10/22 02:10:24;;;;;;;1.55;1.55;;;;;;;;;;5044751;28;20041;-64
2023/10/22 02:12:52;;;;;;;1.60;1.60;;;;;;;;;;5044670;28;20073;-64
2023/10/22 02:15:23;;;;;;;1.70;1.70;;;;;;;;;;5045723;28;20045;-65
2023/10/22 02:17:51;;;;;;;1.90;1.80;;;;;;;;;;5042375;28;20041;-65
2023/10/22 02:20:20;;;;;;;1.70;1.60;;;;;;;;;;5044902;28;20494;-64
2023/10/22 02:22:48;;;;;;;6.68;2.05;;;;;;;;;;5043257;28;20581;-64
2023/10/22 02:25:17;;;;;;;1.50;1.50;;;;;;;;;;5045762;28;20049;-64
2023/10/22 02:27:45;;;;;;;1.90;1.80;;;;;;;;;;5042700;28;20103;-65
2023/10/22 02:30:14;;;;;;;1.60;1.60;;;;;;;;;;5044449;28;20054;-63
2023/10/22 02:32:44;;;;;;;1.50;1.50;;;;;;;;;;5043420;28;20093;-65
2023/10/22 02:35:12;;;;;;;2.97;1.70;;;;;;;;;;5043341;28;20041;-65
2023/10/22 02:37:41;;;;;;;4.50;1.77;;;;;;;;;;5041293;28;20481;-70
2023/10/22 02:40:10;;;;;;;1.70;1.60;;;;;;;;;;5042956;28;20142;-65
2023/10/22 02:42:38;;;;;;;1.75;1.65;;;;;;;;;;5045689;28;20076;-65
2023/10/22 02:45:07;;;;;;;1.50;1.50;;;;;;;;;;5045584;28;20379;-64
2023/10/22 02:47:35;;;;;;;1.60;1.60;;;;;;;;;;5042342;28;20048;-64
2023/10/22 02:50:06;;;;;;;1.85;1.75;;;;;;;;;;5043710;28;20120;-65
2023/10/22 02:52:34;;;;;;;1.58;1.58;;;;;;;;;;5044697;28;20044;-64
2023/10/22 02:55:02;;;;;;;1.63;1.63;;;;;;;;;;5043813;28;20049;-64
2023/10/22 02:57:31;;;;;;;1.65;1.55;;;;;;;;;;5041852;28;20106;-65
2023/10/22 02:59:59;;;;;;;1.50;1.50;;;;;;;;;;5042710;28;20074;-64
2023/10/22 03:02:28;;;;;;;1.60;1.60;;;;;;;;;;5044185;28;20055;-64
2023/10/22 03:04:56;;;;;;;1.80;1.70;;;;;;;;;;5043012;28;20053;-64
2023/10/22 03:07:27;;;;;;;1.80;1.70;;;;;;;;;;5041326;28;20077;-65
2023/10/22 03:09:56;;;;;;;1.90;1.80;;;;;;;;;;5042728;28;20384;-64
2023/10/22 03:12:24;;;;;;;1.88;1.77;;;;;;;;;;5043595;28;20493;-65
2023/10/22 03:14:53;;;;;;;1.70;1.70;;;;;;;;;;5044017;28;20045;-64
2023/10/22 03:17:21;;;;;;;1.80;1.70;;;;;;;;;;5044350;28;20414;-64
2023/10/22 03:19:49;;;;;;;1.90;1.80;;;;;;;;;;5042441;28;20045;-64
2023/10/22 03:22:18;;;;;;;1.65;1.65;;;;;;;;;;5044506;28;20041;-64
2023/10/22 03:24:51;;;;;;;1.50;1.50;;;;;;;;;;5044411;28;20049;-64
2023/10/22 03:27:20;;;;;;;1.50;1.50;;;;;;;;;;5040561;28;20053;-64
2023/10/22 03:29:49;;;;;;;1.88;1.77;;;;;;;;;;5043761;28;20103;-64
2023/10/22 03:32:17;;;;;;;1.60;1.60;;;;;;;;;;5043868;28;20134;-65
2023/10/22 03:34:46;;;;;;;1.92;1.80;;;;;;;;;;5040818;28;20454;-65
2023/10/22 03:37:14;;;;;;;1.90;1.80;;;;;;;;;;5037885;28;20049;-64
2023/10/22 03:39:42;;;;;;;1.90;1.80;;;;;;;;;;5044134;28;20049;-64
2023/10/22 03:42:12;;;;;;;1.80;1.70;;;;;;;;;;5043746;28;20045;-65
2023/10/22 03:44:41;;;;;;;1.70;1.60;;;;;;;;;;5044069;28;20056;-65
2023/10/22 03:47:09;;;;;;;1.90;1.80;;;;;;;;;;5040333;28;20049;-64
2023/10/22 03:49:38;;;;;;;1.60;1.60;;;;;;;;;;5042647;28;20044;-64
2023/10/22 03:52:06;;;;;;;1.60;1.60;;;;;;;;;;5044504;28;20069;-64
2023/10/22 03:54:35;;;;;;;1.65;1.65;;;;;;;;;;5042970;28;20052;-65
2023/10/22 03:57:04;;;;;;;1.50;1.50;;;;;;;;;;5040657;28;20052;-64
2023/10/22 03:59:33;;;;;;;1.60;1.50;;;;;;;;;;5040486;28;20049;-65
2023/10/22 04:02:02;;;;;;;1.70;1.60;;;;;;;;;;5039308;28;20505;-64
2023/10/22 04:04:30;;;;;;;1.60;1.60;;;;;;;;;;5038814;28;20047;-64
2023/10/22 04:06:59;;;;;;;1.80;1.70;;;;;;;;;;5040616;28;20155;-64
2023/10/22 04:09:27;;;;;;;1.60;1.50;;;;;;;;;;5042105;28;20073;-64
2023/10/22 04:11:56;;;;;;;1.50;1.50;;;;;;;;;;5040271;28;20131;-64
2023/10/22 04:14:24;;;;;;;1.50;1.50;;;;;;;;;;5040650;28;20045;-64
2023/10/22 04:16:54;;;;;;;1.50;1.50;;;;;;;;;;5040425;28;20060;-64
2023/10/22 04:19:22;;;;;;;1.90;1.80;;;;;;;;;;5040152;28;20626;-64
2023/10/22 04:21:51;;;;;;;1.50;1.50;;;;;;;;;;5043153;28;20072;-64
2023/10/22 04:24:19;;;;;;;1.77;1.65;;;;;;;;;;5038958;28;20572;-64
2023/10/22 04:26:47;;;;;;;1.58;1.50;;;;;;;;;;5039496;28;20131;-64
2023/10/22 04:29:16;;;;;;;1.70;1.60;;;;;;;;;;5040573;28;20048;-64
2023/10/22 04:31:44;;;;;;;1.42;1.42;;;;;;;;;;5042782;28;20529;-65
2023/10/22 04:34:14;;;;;;;2.00;1.90;;;;;;;;;;5039883;28;20063;-64
2023/10/22 04:36:42;;;;;;;1.50;1.50;;;;;;;;;;5038381;28;20497;-64
2023/10/22 04:39:11;;;;;;;1.40;1.40;;;;;;;;;;5039826;28;20132;-64
2023/10/22 04:41:39;;;;;;;1.50;1.50;;;;;;;;;;5042143;28;20068;-64
2023/10/22 04:44:08;;;;;;;1.40;1.40;;;;;;;;;;5040903;28;20048;-64
2023/10/22 04:46:36;;;;;;;2.40;1.50;;;;;;;;;;5041840;28;20049;-64
2023/10/22 04:49:05;;;;;;;1.42;1.42;;;;;;;;;;5042767;28;20049;-64
2023/10/22 04:51:34;;;;;;;1.48;1.48;;;;;;;;;;5042154;28;20106;-64
2023/10/22 04:54:03;;;;;;;1.60;1.50;;;;;;;;;;5042162;28;20060;-64
2023/10/22 04:56:31;;;;;;;1.50;1.50;;;;;;;;;;5039928;28;20052;-64
2023/10/22 04:58:59;;;;;;;1.67;1.60;;;;;;;;;;5041192;28;20472;-64
2023/10/22 05:01:28;;;;;;;1.50;1.50;;;;;;;;;;5042691;28;20602;-64
2023/10/22 05:03:56;;;;;;;2.00;1.90;;;;;;;;;;5041090;28;20052;-64
2023/10/22 05:06:25;;;;;;;1.60;1.60;;;;;;;;;;5039305;28;20037;-65
2023/10/22 05:08:55;;;;;;;1.60;1.60;;;;;;;;;;5038473;28;20064;-64
2023/10/22 05:11:26;;;;;;;1.50;1.50;;;;;;;;;;5040815;28;20092;-64
2023/10/22 05:13:54;;;;;;;1.52;1.52;;;;;;;;;;5038363;28;20041;-64
2023/10/22 05:16:23;;;;;;;4.22;1.70;;;;;;;;;;5042915;28;20126;-64
2023/10/22 05:18:51;;;;;;;1.42;1.42;;;;;;;;;;5037620;28;20126;-65
2023/10/22 05:21:20;;;;;;;2.95;1.80;;;;;;;;;;5043341;28;20474;-64
2023/10/22 05:23:48;;;;;;;2.80;1.65;;;;;;;;;;5042447;28;20049;-64
2023/10/22 05:26:18;;;;;;;1.67;1.67;;;;;;;;;;5047015;28;20276;-64
2023/10/22 05:28:46;;;;;;;1.45;1.40;;;;;;;;;;5045577;28;20095;-64
2023/10/22 05:31:15;;;;;;;1.50;1.50;;;;;;;;;;5044241;28;20106;-64
2023/10/22 05:33:44;;;;;;;1.67;1.60;;;;;;;;;;5042629;28;20132;-64
2023/10/22 05:36:16;;;;;;;1.60;1.60;;;;;;;;;;5044257;28;20494;-64
2023/10/22 05:38:45;;;;;;;1.70;1.60;;;;;;;;;;5043750;28;20696;-65
2023/10/22 05:41:19;;;;;;;1.55;1.50;;;;;;;;;;5042705;28;20049;-64
2023/10/22 05:43:47;;;;;;;1.73;1.63;;;;;;;;;;5044876;28;20541;-64
2023/10/22 05:46:15;;;;;;;1.70;1.70;;;;;;;;;;5040144;28;20091;-64
2023/10/22 05:48:44;;;;;;;1.60;1.60;;;;;;;;;;5044971;28;20048;-64
2023/10/22 05:51:12;;;;;;;1.50;1.50;;;;;;;;;;5045577;28;20589;-64
2023/10/22 05:53:41;;;;;;;1.77;1.70;;;;;;;;;;5045474;28;20041;-64
2023/10/22 05:56:09;;;;;;;1.70;1.60;;;;;;;;;;5044734;28;20045;-64
2023/10/22 05:58:39;;;;;;;1.70;1.60;;;;;;;;;;5042283;28;20427;-64
2023/10/22 06:01:09;;;;;;;1.60;1.60;;;;;;;;;;5042617;28;20133;-64
2023/10/22 06:03:38;;;;;;;1.50;1.50;;;;;;;;;;5045191;28;20064;-64
2023/10/22 06:06:06;;;;;;;1.60;1.50;;;;;;;;;;5043040;28;20132;-64
2023/10/22 06:08:35;;;;;;;1.50;1.50;;;;;;;;;;5041863;28;20041;-64
2023/10/22 06:11:04;;;;;;;1.80;1.70;;;;;;;;;;5044643;28;20052;-63
2023/10/22 06:13:33;;;;;;;1.50;1.50;;;;;;;;;;5043749;28;20125;-63
2023/10/22 06:16:03;;;;;;;1.90;1.80;;;;;;;;;;5039277;28;20556;-64
2023/10/22 06:18:31;;;;;;;1.60;1.50;;;;;;;;;;5044150;28;20045;-65
2023/10/22 06:20:59;;;;;;;1.60;1.60;;;;;;;;;;5045583;28;20041;-64
2023/10/22 06:23:28;;;;;;;1.50;1.50;;;;;;;;;;5044116;28;20053;-64
2023/10/22 06:25:56;;;;;;;1.70;1.60;;;;;;;;;;5039398;28;20401;-64
2023/10/22 06:28:25;;;;;;;1.50;1.50;;;;;;;;;;5043900;28;20575;-64
2023/10/22 06:30:53;;;;;;;1.70;1.60;;;;;;;;;;5046238;28;20402;-64
2023/10/22 06:33:23;;;;;;;1.60;1.60;;;;;;;;;;5044761;28;20547;-63
2023/10/22 06:35:52;;;;;;;1.80;1.70;;;;;;;;;;5043577;28;20064;-65
2023/10/22 06:38:20;;;;;;;1.70;1.60;;;;;;;;;;5045519;28;20045;-64
2023/10/22 06:40:48;;;;;;;1.60;1.60;;;;;;;;;;5046221;28;20052;-64
2023/10/22 06:43:17;;;;;;;1.70;1.70;;;;;;;;;;5043758;28;20453;-65
2023/10/22 06:45:45;;;;;;;1.77;1.67;;;;;;;;;;5039385;28;20478;-64
2023/10/22 06:48:14;;;;;;;1.65;1.65;;;;;;;;;;5040893;28;20094;-64
2023/10/22 06:50:44;;;;;;;1.60;1.60;;;;;;;;;;5043653;28;20056;-65
2023/10/22 06:53:12;;;;;;;1.60;1.60;;;;;;;;;;5042013;28;20056;-67
2023/10/22 06:55:42;;;;;;;1.52;1.52;;;;;;;;;;5042895;28;20118;-66
2023/10/22 06:58:11;;;;;;;1.70;1.60;;;;;;;;;;5044001;28;20064;-66
2023/10/22 07:00:39;;;;;;;1.90;1.80;;;;;;;;;;5037844;28;20053;-65
2023/10/22 07:03:07;;;;;;;2.55;1.80;;;;;;;;;;5039321;28;20091;-66
2023/10/22 07:05:36;;;;;;;1.80;1.70;;;;;;;;;;5040460;28;20048;-64
2023/10/22 07:08:06;;;;;;;1.70;1.70;;;;;;;;;;5040384;28;20052;-64
2023/10/22 07:10:34;;;;;;;1.80;1.70;;;;;;;;;;5043277;28;20052;-65
2023/10/22 07:13:02;;;;;;;1.90;1.80;;;;;;;;;;5041035;28;20307;-65
2023/10/22 07:15:31;;;;;;;2.03;1.92;;;;;;;;;;5044176;28;20041;-65
2023/10/22 07:17:59;;;;;;;1.80;1.80;;;;;;;;;;5038035;28;20130;-64
2023/10/22 07:20:28;;;;;;;1.90;1.80;;;;;;;;;;5041573;28;20040;-65
2023/10/22 07:22:58;;;;;;;1.80;1.70;;;;;;;;;;5042685;28;20037;-65
2023/10/22 07:25:28;;;;;;;1.90;1.80;;;;;;;;;;5043263;28;20056;-64
2023/10/22 07:27:56;;;;;;;1.90;1.80;;;;;;;;;;5043785;28;20127;-64
2023/10/22 07:30:25;;;;;;;1.70;1.60;;;;;;;;;;5035976;28;20110;-64
2023/10/22 07:32:54;;;;;;;1.50;1.50;;;;;;;;;;5035574;28;20051;-65
2023/10/22 07:35:23;;;;;;;1.73;1.65;;;;;;;;;;5033144;28;20429;-65
2023/10/22 07:37:51;;;;;;;1.70;1.60;;;;;;;;;;5034896;28;20053;-65
2023/10/22 07:40:20;;;;;;;1.65;1.60;;;;;;;;;;5040533;28;20052;-65
2023/10/22 07:42:50;;;;;;;1.63;1.60;;;;;;;;;;5036765;28;20060;-65
2023/10/22 07:45:18;;;;;;;1.65;1.55;;;;;;;;;;5040879;28;20044;-64
2023/10/22 07:47:48;;;;;;;1.70;1.60;;;;;;;;;;5040270;28;20102;-65
2023/10/22 07:50:16;;;;;;;1.50;1.50;;;;;;;;;;5041270;28;20048;-65
2023/10/22 07:52:45;;;;;;;1.85;1.67;;;;;;;;;;5037238;28;20178;-65
2023/10/22 07:55:13;;;;;;;1.70;1.60;;;;;;;;;;5033347;28;20164;-66
2023/10/22 07:57:41;;;;;;;2.22;1.60;;;;;;;;;;5029257;28;20053;-66
2023/10/22 08:00:12;;;;;;;1.75;1.65;;;;;;;;;;5029985;28;20635;-65
2023/10/22 08:02:41;;;;;;;1.70;1.60;;;;;;;;;;5038197;28;20521;-65
2023/10/22 08:05:10;;;;;;;1.42;1.42;;;;;;;;;;5038769;28;22095;-66
2023/10/22 08:07:41;;;;;;;1.60;1.50;;;;;;;;;;5037170;28;20323;-65
2023/10/22 08:10:09;;;;;;;1.75;1.65;;;;;;;;;;5036031;28;20126;-66
2023/10/22 08:12:38;;;;;;;1.60;1.60;;;;;;;;;;5038138;28;20456;-67
2023/10/22 08:15:07;;;;;;;1.70;1.60;;;;;;;;;;5032866;28;20045;-65
2023/10/22 08:17:36;;;;;;;1.60;1.50;;;;;;;;;;5032746;28;20099;-65
2023/10/22 08:20:05;;;;;;;1.52;1.52;;;;;;;;;;5034437;28;20102;-65
2023/10/22 08:22:34;;;;;;;1.98;1.85;;;;;;;;;;5036868;28;20490;-65
2023/10/22 08:25:02;;;;;;;1.80;1.70;;;;;;;;;;5034530;28;20080;-66
2023/10/22 08:27:30;;;;;;;1.52;1.50;;;;;;;;;;5038059;28;20123;-67
2023/10/22 08:29:59;;;;;;;1.55;1.55;;;;;;;;;;5038064;28;20136;-66
2023/10/22 08:32:27;;;;;;;1.70;1.60;;;;;;;;;;5037746;28;20466;-68
2023/10/22 08:34:58;;;;;;;3.70;1.90;;;;;;;;;;5040871;28;20057;-65
2023/10/22 08:37:27;;;;;;;1.70;1.60;;;;;;;;;;5039659;28;20057;-68
2023/10/22 08:39:55;;;;;;;1.58;1.48;;;;;;;;;;5040606;28;20090;-67
2023/10/22 08:42:25;;;;;;;1.77;1.67;;;;;;;;;;5041363;28;20042;-66
2023/10/22 08:44:53;;;;;;;1.50;1.50;;;;;;;;;;5040356;28;20049;-67
2023/10/22 08:47:22;;;;;;;1.60;1.50;;;;;;;;;;5038818;28;20474;-67
2023/10/22 08:49:52;;;;;;;1.65;1.60;;;;;;;;;;5039073;28;20087;-67
2023/10/22 08:52:21;;;;;;;1.67;1.60;;;;;;;;;;5038111;28;20068;-67
2023/10/22 08:54:51;;;;;;;1.80;1.70;;;;;;;;;;5044203;28;20072;-66
2023/10/22 08:57:22;;;;;;;1.60;1.60;;;;;;;;;;5045214;28;20157;-67
2023/10/22 08:59:51;;;;;;;1.60;1.60;;;;;;;;;;5044223;28;20131;-67
2023/10/22 09:02:21;;;;;;;1.73;1.63;;;;;;;;;;5040588;28;20413;-66
2023/10/22 09:04:50;;;;;;;1.67;1.65;;;;;;;;;;5042197;28;20048;-69
2023/10/22 09:07:19;;;;;;;1.90;1.80;;;;;;;;;;5043636;28;20052;-67
2023/10/22 09:09:48;;;;;;;1.50;1.50;;;;;;;;;;5045724;28;20467;-67
2023/10/22 09:12:18;;;;;;;1.70;1.60;;;;;;;;;;5042422;28;20069;-66
2023/10/22 09:14:46;;;;;;;1.63;1.52;;;;;;;;;;5043765;28;20118;-64
2023/10/22 09:17:18;;;;;;;1.90;1.80;;;;;;;;;;5039737;28;20057;-65
2023/10/22 09:19:48;;;;;;;1.55;1.48;;;;;;;;;;5038437;28;20060;-65
2023/10/22 09:22:22;;;;;;;1.92;1.80;;;;;;;;;;5040469;28;20048;-65
2023/10/22 09:24:53;;;;;;;1.63;1.60;;;;;;;;;;5039445;28;20099;-68
2023/10/22 09:27:26;;;;;;;1.80;1.70;;;;;;;;;;5044507;28;20057;-65
2023/10/22 09:29:54;;;;;;;1.92;1.60;;;;;;;;;;5045170;28;20080;-64
2023/10/22 09:32:23;;;;;;;1.77;1.67;;;;;;;;;;5037611;28;20051;-65
2023/10/22 09:34:52;;;;;;;2.38;2.17;;;;;;;;;;5034607;28;20148;-64
2023/10/22 09:37:20;;;;;;;2.00;1.92;;;;;;;;;;5034025;28;20087;-65
2023/10/22 09:39:48;;;;;;;1.67;1.58;;;;;;;;;;5036538;28;20095;-64
2023/10/22 09:42:18;;;;;;;1.90;1.80;;;;;;;;;;5041338;28;20091;-64
2023/10/22 09:44:47;;;;;;;1.50;1.40;;;;;;;;;;5035736;28;20060;-65
2023/10/22 09:47:19;;;;;;;1.65;1.60;;;;;;;;;;5031693;28;20530;-65
2023/10/22 09:49:52;;;;;;;1.40;1.40;;;;;;;;;;5027348;28;20472;-65
2023/10/22 09:52:23;;;;;;;1.50;1.40;;;;;;;;;;5043414;28;20064;-65
2023/10/22 09:54:54;;;;;;;1.63;1.52;;;;;;;;;;5039617;28;20165;-64
2023/10/22 09:57:27;;;;;;;1.40;1.40;;;;;;;;;;5043664;28;20075;-64
2023/10/22 10:00:01;;;;;;;1.35;1.35;;;;;;;;;;5041268;28;20052;-65
2023/10/22 10:02:30;;;;;;;1.40;1.40;;;;;;;;;;5041793;28;20044;-66
2023/10/22 10:04:59;;;;;;;1.55;1.48;;;;;;;;;;5042135;28;20486;-66
2023/10/22 10:07:27;;;;;;;1.40;1.40;;;;;;;;;;5043562;28;20115;-66
2023/10/22 10:09:56;;;;;;;1.83;1.73;;;;;;;;;;5041450;28;20045;-64
2023/10/22 10:12:28;;;;;;;1.75;1.65;;;;;;;;;;5044999;28;20103;-65
2023/10/22 10:14:56;;;;;;;1.40;1.40;;;;;;;;;;5041993;28;20095;-65
2023/10/22 10:17:25;;;;;;;1.65;1.65;;;;;;;;;;5041335;28;20125;-64
2023/10/22 10:19:53;;;;;;;1.73;1.67;;;;;;;;;;5040533;28;20087;-64
2023/10/22 10:22:40;;;;;;;1.80;1.70;;;;;;;;;;5046753;28;20048;-64
2023/10/22 10:25:28;;;;;;;1.83;1.73;;;;;;;;;;5044276;28;20083;-65
2023/10/22 10:28:01;;;;;;;1.85;1.75;;;;;;;;;;5042068;28;20057;-65
2023/10/22 10:30:30;;;;;;;1.77;1.67;;;;;;;;;;5042964;28;20413;-63
2023/10/22 10:32:58;;;;;;;1.50;1.50;;;;;;;;;;5039666;28;20072;-65
2023/10/22 10:35:44;;;;;;;1.60;1.50;;;;;;;;;;5039203;28;20060;-66
2023/10/22 10:38:22;;;;;;;1.60;1.50;;;;;;;;;;5037867;28;20067;-66
2023/10/22 10:40:51;;;;;;;1.50;1.40;;;;;;;;;;5040196;28;20099;-66
2023/10/22 10:43:21;;;;;;;1.60;1.50;;;;;;;;;;5040328;28;20481;-65
2023/10/22 10:46:17;;;;;;;1.58;1.50;;;;;;;;;;5040438;28;20065;-66
2023/10/22 10:48:47;;;;;;;;;;;;;;;;;;4995969;28;20057;-66
2023/10/22 10:51:17;;;;;;;1.50;1.40;;;;;;;;;;5038806;28;20059;-66
2023/10/22 10:54:03;;;;;;;1.48;1.38;;;;;;;;;;5042516;28;20045;-66
2023/10/22 10:56:46;;;;;;;1.33;1.33;;;;;;;;;;5032914;28;20501;-66
2023/10/22 10:59:26;;;;;;;1.63;1.52;;;;;;;;;;5044498;28;20071;-66
2023/10/22 11:01:58;;;;;;;1.60;1.50;;;;;;;;;;5043706;28;20041;-66
2023/10/22 11:04:27;;;;;;;1.50;1.40;;;;;;;;;;5041532;28;20053;-66
2023/10/22 11:06:56;;;;;;;1.52;1.42;;;;;;;;;;5042929;28;20123;-66
2023/10/22 11:09:38;;;;;;;1.50;1.40;;;;;;;;;;5043605;28;20048;-66
2023/10/22 11:12:08;;;;;;;1.60;1.50;;;;;;;;;;5040000;28;20139;-66
2023/10/22 11:14:38;;;;;;;1.55;1.42;;;;;;;;;;5044864;28;20048;-66
2023/10/22 11:17:07;;;;;;;1.40;1.40;;;;;;;;;;5041775;28;20884;-66
2023/10/22 11:19:36;;;;;;;1.70;1.60;;;;;;;;;;5042805;28;20143;-66
2023/10/22 11:22:05;;;;;;;1.30;1.30;;;;;;;;;;5038272;28;20402;-66
2023/10/22 11:24:34;;;;;;;1.30;1.30;;;;;;;;;;5042888;28;20068;-66
2023/10/22 11:27:07;;;;;;;1.48;1.40;;;;;;;;;;5045496;28;20107;-64
2023/10/22 11:29:41;;;;;;;1.58;1.48;;;;;;;;;;5040274;28;20064;-65
2023/10/22 11:32:12;;;;;;;1.48;1.38;;;;;;;;;;5033408;28;20789;-66
2023/10/22 11:34:48;;;;;;;1.48;1.40;;;;;;;;;;5031905;28;20498;-66
2023/10/22 11:37:16;;;;;;;;;;;;;;;;;;5040186;28;20061;-65
2023/10/22 11:39:44;;;;;;;1.50;1.40;;;;;;;;;;5035886;28;19921;-66
2023/10/22 11:42:13;;;;;;;1.50;1.50;;;;;;;;;;5036775;28;20049;-66
2023/10/22 11:44:46;;;;;;;1.40;1.40;;;;;;;;;;5038064;28;20045;-65
2023/10/22 11:47:25;;;;;;;1.75;1.65;;;;;;;;;;5042627;28;20071;-65
2023/10/22 11:49:54;;;;;;;1.50;1.50;;;;;;;;;;5058319;28;20055;-66
2023/10/22 11:52:38;;;;;;;1.50;1.40;;;;;;;;;;5036564;28;20041;-65
2023/10/22 11:55:07;;;;;;;2.05;1.52;;;;;;;;;;5034984;28;20045;-66
2023/10/22 11:57:48;;;;;;;1.60;1.50;;;;;;;;;;5035322;28;20094;-66
2023/10/22 12:00:18;;;;;;;1.55;1.50;;;;;;;;;;5039935;28;20102;-66
2023/10/22 12:02:46;;;;;;;1.55;1.45;;;;;;;;;;5038507;28;20083;-66
2023/10/22 12:05:15;;;;;;;1.60;1.50;;;;;;;;;;5035295;28;20259;-66
2023/10/22 12:07:43;;;;;;;1.52;1.40;;;;;;;;;;5038506;28;20079;-65
2023/10/22 12:10:12;;;;;;;1.77;1.55;;;;;;;;;;5036848;28;20084;-65
2023/10/22 12:12:40;;;;;;;1.40;1.30;;;;;;;;;;5041857;28;20075;-65
2023/10/22 12:15:10;;;;;;;1.48;1.38;;;;;;;;;;5037474;28;20060;-66
2023/10/22 12:17:40;;;;;;;1.75;1.50;;;;;;;;;;5038320;28;20053;-66
2023/10/22 12:20:09;;;;;;;1.48;1.40;;;;;;;;;;5037584;28;20052;-67
2023/10/22 12:22:38;;;;;;;1.30;1.30;;;;;;;;;;5039736;28;20052;-68
2023/10/22 12:25:07;;;;;;;1.50;1.40;;;;;;;;;;5038910;28;20099;-66
2023/10/22 12:27:35;;;;;;;1.50;1.40;;;;;;;;;;5036333;28;20051;-66
2023/10/22 12:30:04;;;;;;;2.30;1.90;;;;;;;;;;5036659;28;20040;-65
2023/10/22 12:32:33;;;;;;;1.40;1.17;;;;;;;;;;5038878;28;20132;-67
2023/10/22 12:35:03;;;;;;;1.13;1.13;;;;;;;;;;5037615;28;20123;-64
2023/10/22 12:37:31;;;;;;;1.10;1.10;;;;;;;;;;5037639;28;20049;-65
2023/10/22 12:40:01;;;;;;;1.20;1.20;;;;;;;;;;5038083;28;20079;-63
2023/10/22 12:42:29;;;;;;;1.33;1.33;;;;;;;;;;5039280;28;20044;-66
2023/10/22 12:44:58;;;;;;;1.40;1.30;;;;;;;;;;5037437;28;20048;-67
2023/10/22 12:47:26;;;;;;;1.40;1.30;;;;;;;;;;5040683;28;20048;-66
2023/10/22 12:49:54;;;;;;;1.60;1.50;;;;;;;;;;5038293;28;20054;-66
2023/10/22 12:52:24;;;;;;;1.70;1.70;;;;;;;;;;5041509;28;20544;-66
2023/10/22 12:54:52;;;;;;;1.80;1.70;;;;;;;;;;5041944;28;20049;-64
2023/10/22 12:57:21;;;;;;;1.70;1.70;;;;;;;;;;5040922;28;20769;-66
2023/10/22 12:59:49;;;;;;;1.88;1.77;;;;;;;;;;5037612;28;20041;-68
2023/10/22 13:02:17;;;;;;;1.95;1.85;;;;;;;;;;5040859;28;20077;-67
2023/10/22 13:04:47;;;;;;;2.05;1.95;;;;;;;;;;5040820;28;20127;-66
2023/10/22 13:07:16;;;;;;;1.90;1.80;;;;;;;;;;5043178;28;20470;-66
2023/10/22 13:09:46;;;;;;;2.80;1.80;;;;;;;;;;5039821;28;20057;-69
2023/10/22 13:12:14;;;;;;;1.60;1.60;;;;;;;;;;5038307;28;20131;-70
2023/10/22 13:14:42;;;;;;;1.50;1.50;;;;;;;;;;5039512;28;20064;-70
2023/10/22 13:17:11;;;;;;;1.75;1.70;;;;;;;;;;5039560;28;20048;-70
2023/10/22 13:19:39;;;;;;;1.70;1.60;;;;;;;;;;5039033;28;20053;-70
2023/10/22 13:22:08;;;;;;;1.30;1.20;;;;;;;;;;5037153;28;20134;-70
2023/10/22 13:24:36;;;;;;;1.60;1.50;;;;;;;;;;5036747;28;20049;-69
2023/10/22 13:27:06;;;;;;;1.40;1.30;;;;;;;;;;5035895;28;20045;-69
2023/10/22 13:29:35;;;;;;;1.40;1.30;;;;;;;;;;5027542;28;21052;-69
2023/10/22 13:32:03;;;;;;;1.38;1.27;;;;;;;;;;5037468;28;20103;-70
2023/10/22 13:34:32;;;;;;;1.50;1.40;;;;;;;;;;5033760;28;20049;-69
2023/10/22 13:37:00;;;;;;;1.88;1.35;;;;;;;;;;5036693;28;20053;-70
2023/10/22 13:39:28;;;;;;;2.25;1.38;;;;;;;;;;5039826;28;20142;-70
2023/10/22 13:41:57;;;;;;;1.42;1.40;;;;;;;;;;5041705;28;20052;-69
2023/10/22 13:44:27;;;;;;;1.40;1.40;;;;;;;;;;5043793;28;20040;-68
2023/10/22 13:46:55;;;;;;;1.30;1.30;;;;;;;;;;5043552;28;20098;-68
2023/10/22 13:49:23;;;;;;;1.33;1.33;;;;;;;;;;5043635;28;20062;-69
2023/10/22 13:51:52;;;;;;;1.40;1.40;;;;;;;;;;5040910;28;20466;-69
2023/10/22 13:54:20;;;;;;;1.70;1.60;;;;;;;;;;5043861;28;20245;-70
2023/10/22 13:56:49;;;;;;;2.00;1.90;;;;;;;;;;5039520;28;20550;-71
2023/10/22 13:59:17;;;;;;;2.10;2.00;;;;;;;;;;5037981;28;20102;-71
2023/10/22 14:01:47;;;;;;;2.30;2.20;;;;;;;;;;5038367;28;20057;-71
2023/10/22 14:04:15;;;;;;;2.20;2.10;;;;;;;;;;5031257;28;20513;-70
2023/10/22 14:06:45;;;;;;;2.20;2.10;;;;;;;;;;5043223;28;20044;-70
2023/10/22 14:09:13;;;;;;;2.58;2.15;;;;;;;;;;5039055;28;20072;-70
2023/10/22 14:11:41;;;;;;;2.22;2.13;;;;;;;;;;5042449;28;20049;-71
2023/10/22 14:14:10;;;;;;;2.53;2.40;;;;;;;;;;5040455;28;20138;-70
2023/10/22 14:16:38;;;;;;;2.47;2.35;;;;;;;;;;5043192;28;20053;-71
2023/10/22 14:19:08;;;;;;;2.20;2.10;;;;;;;;;;5032708;28;20073;-70
2023/10/22 14:21:36;;;;;;;2.17;2.08;;;;;;;;;;5040150;28;20079;-69
2023/10/22 14:24:05;;;;;;;2.20;2.10;;;;;;;;;;5041391;28;20129;-70
2023/10/22 14:26:33;;;;;;;2.10;2.00;;;;;;;;;;5040308;28;20151;-69
2023/10/22 14:29:02;;;;;;;3.60;2.60;;;;;;;;;;5037058;28;20128;-69
2023/10/22 14:31:30;;;;;;;1.88;1.77;;;;;;;;;;5037928;28;20080;-70
2023/10/22 14:33:59;;;;;;;1.98;1.88;;;;;;;;;;5040782;28;20053;-70
2023/10/22 14:36:28;;;;;;;1.60;1.60;;;;;;;;;;5037612;28;20558;-70
2023/10/22 14:38:57;;;;;;;1.60;1.60;;;;;;;;;;5040460;28;20045;-70
2023/10/22 14:41:25;;;;;;;1.60;1.60;;;;;;;;;;5039753;28;20130;-70
2023/10/22 14:43:54;;;;;;;1.90;1.80;;;;;;;;;;5038657;28;20498;-70
2023/10/22 14:46:22;;;;;;;1.85;1.60;;;;;;;;;;5037278;28;20176;-70
2023/10/22 14:48:52;;;;;;;1.80;1.70;;;;;;;;;;5038086;28;20502;-70
2023/10/22 14:51:20;;;;;;;1.70;1.60;;;;;;;;;;5038872;28;20049;-70
2023/10/22 14:53:50;;;;;;;2.17;1.73;;;;;;;;;;5041285;28;20148;-69
2023/10/22 14:56:18;;;;;;;1.80;1.70;;;;;;;;;;5040247;28;20106;-69